Chantal — A8WQ3 — position and weather

sailwx.info

Track history (hours):
 
Tides and Currents Weather Stations Pressure Air Temp Water Temp Dewpoint Dewpoint Depression Visibility Wind Speed Wind Dir Waves Ship Positions

Chantal

Last reported at 2015-Jul-18 09:06 UTC. Time now 2015-Jul-29 06:51 UTC.
Position N 27°11' W 118°04'.
Warning: this ship's position is 10 days out of date.

Length 228 m; draft 8.1 m.

Type: Tanker. MMSI: 636014805.

Date/timePositionNaut miles runAvg speedWind from/ knotsBaromVisibWave heightAir tempDewpointWater temp
2015-Jul-18 09:06N 27°11' W 118°04'1114.3
2015-Jul-18 08:18N 27°18' W 118°14'4114.8
2015-Jul-18 05:33N 27°43' W 118°50'17314.4
2015-Jul-17 17:31N 29°35' W 121°21'1514.9
2015-Jul-17 16:32N 29°46' W 121°32'4514.1
2015-Jul-17 13:23N 30°01' W 122°21'1214.0
2015-Jul-17 12:32N 30°08' W 122°31'34713.7
2015-Jul-16 11:15N 35°50' W 123°41'1015.1
2015-Jul-16 10:34N 36°00' W 123°38'1515.0
2015-Jul-16 09:33N 36°15' W 123°35'1915.1
2015-Jul-16 08:20N 36°33' W 123°30'1114.7
2015-Jul-16 07:33N 36°44' W 123°28'1414.4
2015-Jul-16 06:33N 36°58' W 123°24'1414.4
2015-Jul-16 05:33N 37°12' W 123°20'1414.1
2015-Jul-16 04:33N 37°26' W 123°14'1211.9
2015-Jul-16 03:33N 37°34' W 123°04'1010.2
2015-Jul-16 02:33N 37°40' W 122°53'10 9.8
2015-Jul-16 01:34N 37°44' W 122°42'1212.4
2015-Jul-16 00:34N 37°50' W 122°28'1212.0
2015-Jul-15 23:34N 38°01' W 122°23'1211.2
2015-Jul-15 22:31N 38°02' W 122°09'1 0.0
2015-Jul-14 05:17N 38°02' W 122°08'2 3.3
2015-Jul-14 04:33N 38°03' W 122°11'9 8.7
2015-Jul-14 03:33N 38°02' W 122°22'8 7.7
2015-Jul-14 02:33N 37°56' W 122°27'10 9.5
2015-Jul-14 01:33N 37°47' W 122°22'2 1.6
2015-Jul-14 00:32N 37°45' W 122°21'0 0.2
2015-Jul-13 23:32N 37°46' W 122°21'0 0.0
2015-Jul-13 22:32N 37°46' W 122°21'0 0.0
2015-Jul-13 21:32N 37°46' W 122°21'0 0.0
2015-Jul-13 20:32N 37°46' W 122°21'0 0.2
2015-Jul-13 19:32N 37°45' W 122°21'0 0.1
2015-Jul-13 18:32N 37°45' W 122°21'0 0.0
2015-Jul-13 17:32N 37°45' W 122°21'0 0.0
2015-Jul-13 16:32N 37°45' W 122°21'0 0.0
2015-Jul-13 15:32N 37°45' W 122°21'0 0.0
2015-Jul-13 14:32N 37°45' W 122°21'0 0.0
2015-Jul-13 13:32N 37°45' W 122°21'0 0.2
2015-Jul-13 12:32N 37°46' W 122°21'0 0.0
2015-Jul-13 11:32N 37°46' W 122°21'0 0.0
2015-Jul-13 10:32N 37°46' W 122°21'0 0.0
2015-Jul-13 09:32N 37°46' W 122°21'0 0.0
2015-Jul-13 08:32N 37°46' W 122°21'0 0.1
2015-Jul-13 07:32N 37°46' W 122°21'0 0.0
2015-Jul-13 06:32N 37°46' W 122°21'0 0.2
2015-Jul-13 05:32N 37°45' W 122°21'0 0.1
2015-Jul-13 04:32N 37°45' W 122°21'0 0.0
2015-Jul-13 03:32N 37°45' W 122°21'0 0.0
2015-Jul-13 02:32N 37°45' W 122°21'0 0.0
2015-Jul-13 01:33N 37°45' W 122°21'7 6.6
2015-Jul-13 00:33N 37°49' W 122°28'1110.6
2015-Jul-12 23:33N 37°45' W 122°41'9 8.8
2015-Jul-12 22:33N 37°40' W 122°50'10 9.7
2015-Jul-12 21:33N 37°34' W 122°60'10 9.9
2015-Jul-12 20:33N 37°28' W 123°09'1413.4
2015-Jul-12 19:32N 37°18' W 123°21'1413.9
2015-Jul-12 18:33N 37°08' W 123°32'1413.6
2015-Jul-12 17:32N 36°57' W 123°44'1513.7
2015-Jul-12 16:26N 36°47' W 123°57'  
Track history (hours):
 
Tides and Currents Weather Stations Pressure Air Temp Water Temp Dewpoint Dewpoint Depression Visibility Wind Speed Wind Dir Waves Ship Positions

Chantal

Last reported at 2015-Jul-18 09:06 UTC. Time now 2015-Jul-29 06:51 UTC.
Position N 27°11' W 118°04'.
Warning: this ship's position is 10 days out of date.

Length 228 m; draft 8.1 m.

Type: Tanker. MMSI: 636014805.

Date/timePositionNaut miles runAvg speedWind from/ knotsBaromVisibWave heightAir tempDewpointWater temp
2015-Jul-18 09:06N 27°11' W 118°04'1114.3
2015-Jul-18 08:18N 27°18' W 118°14'4114.8
2015-Jul-18 05:33N 27°43' W 118°50'17314.4
2015-Jul-17 17:31N 29°35' W 121°21'1514.9
2015-Jul-17 16:32N 29°46' W 121°32'4514.1
2015-Jul-17 13:23N 30°01' W 122°21'1214.0
2015-Jul-17 12:32N 30°08' W 122°31'34713.7
2015-Jul-16 11:15N 35°50' W 123°41'1015.1
2015-Jul-16 10:34N 36°00' W 123°38'1515.0
2015-Jul-16 09:33N 36°15' W 123°35'1915.1
2015-Jul-16 08:20N 36°33' W 123°30'1114.7
2015-Jul-16 07:33N 36°44' W 123°28'1414.4
2015-Jul-16 06:33N 36°58' W 123°24'1414.4
2015-Jul-16 05:33N 37°12' W 123°20'1414.1
2015-Jul-16 04:33N 37°26' W 123°14'1211.9
2015-Jul-16 03:33N 37°34' W 123°04'1010.2
2015-Jul-16 02:33N 37°40' W 122°53'10 9.8
2015-Jul-16 01:34N 37°44' W 122°42'1212.4
2015-Jul-16 00:34N 37°50' W 122°28'1212.0
2015-Jul-15 23:34N 38°01' W 122°23'1211.2
2015-Jul-15 22:31N 38°02' W 122°09'1 0.0
2015-Jul-14 05:17N 38°02' W 122°08'2 3.3
2015-Jul-14 04:33N 38°03' W 122°11'9 8.7
2015-Jul-14 03:33N 38°02' W 122°22'8 7.7
2015-Jul-14 02:33N 37°56' W 122°27'10 9.5
2015-Jul-14 01:33N 37°47' W 122°22'2 1.6
2015-Jul-14 00:32N 37°45' W 122°21'0 0.2
2015-Jul-13 23:32N 37°46' W 122°21'0 0.0
2015-Jul-13 22:32N 37°46' W 122°21'0 0.0
2015-Jul-13 21:32N 37°46' W 122°21'0 0.0
2015-Jul-13 20:32N 37°46' W 122°21'0 0.2
2015-Jul-13 19:32N 37°45' W 122°21'0 0.1
2015-Jul-13 18:32N 37°45' W 122°21'0 0.0
2015-Jul-13 17:32N 37°45' W 122°21'0 0.0
2015-Jul-13 16:32N 37°45' W 122°21'0 0.0
2015-Jul-13 15:32N 37°45' W 122°21'0 0.0
2015-Jul-13 14:32N 37°45' W 122°21'0 0.0
2015-Jul-13 13:32N 37°45' W 122°21'0 0.2
2015-Jul-13 12:32N 37°46' W 122°21'0 0.0
2015-Jul-13 11:32N 37°46' W 122°21'0 0.0
2015-Jul-13 10:32N 37°46' W 122°21'0 0.0
2015-Jul-13 09:32N 37°46' W 122°21'0 0.0
2015-Jul-13 08:32N 37°46' W 122°21'0 0.1
2015-Jul-13 07:32N 37°46' W 122°21'0 0.0
2015-Jul-13 06:32N 37°46' W 122°21'0 0.2
2015-Jul-13 05:32N 37°45' W 122°21'0 0.1
2015-Jul-13 04:32N 37°45' W 122°21'0 0.0
2015-Jul-13 03:32N 37°45' W 122°21'0 0.0
2015-Jul-13 02:32N 37°45' W 122°21'0 0.0
2015-Jul-13 01:33N 37°45' W 122°21'7 6.6
2015-Jul-13 00:33N 37°49' W 122°28'1110.6
2015-Jul-12 23:33N 37°45' W 122°41'9 8.8
2015-Jul-12 22:33N 37°40' W 122°50'10 9.7
2015-Jul-12 21:33N 37°34' W 122°60'10 9.9
2015-Jul-12 20:33N 37°28' W 123°09'1413.4
2015-Jul-12 19:32N 37°18' W 123°21'1413.9
2015-Jul-12 18:33N 37°08' W 123°32'1413.6
2015-Jul-12 17:32N 36°57' W 123°44'1513.7
2015-Jul-12 16:26N 36°47' W 123°57'  

Dump ship's entire track history